This is the latest recevied weather packets stored in our database for station/object K5KVN. If no packets are shown the sender has not sent any weather packets the latest 10 day(s).
| Time | Temp. | Humidity | Pressure | Rain* | Wind** | Luminosity | Snow |
|---|---|---|---|---|---|---|---|
| 1788558458 | 38.89° C | 39% | 1014.1 hPa | 0 mm | - | - | - |
| 1788557857 | 38.89° C | 39% | 1014.2 hPa | 0 mm | - | - | - |
| 1788557258 | 38.89° C | 37% | 1014.3 hPa | 0 mm | - | - | - |
| 1788556658 | 38.33° C | 38% | 1014.3 hPa | 0 mm | - | - | - |
| 1788556063 | 38.33° C | 38% | 1014.4 hPa | 0 mm | - | - | - |
| 1788555513 | 38.33° C | 39% | 1014.5 hPa | 0 mm | - | - | - |
| 1788554852 | 37.78° C | 39% | 1014.5 hPa | 0 mm | - | - | - |
| 1788554251 | 37.78° C | 40% | 1014.7 hPa | 0 mm | - | - | - |
| 1788553649 | 36.67° C | 42% | 1014.8 hPa | 0 mm | - | - | - |
| 1788553110 | 35.56° C | 43% | 1015.1 hPa | 0 mm | - | - | - |
| 1788552447 | 37.22° C | 41% | 1015.1 hPa | 0 mm | - | - | - |
| 1788551848 | 37.22° C | 40% | 1015.1 hPa | 0 mm | - | - | - |
| 1788551324 | 36.67° C | 42% | 1015.2 hPa | 0 mm | - | - | - |
| 1788550645 | 37.22° C | 41% | 1015.3 hPa | 0 mm | - | - | - |
| 1788550046 | 37.22° C | 41% | 1015.4 hPa | 0 mm | - | - | - |
| 1788549446 | 37.78° C | 41% | 1015.6 hPa | 0 mm | - | - | - |
| 1788548845 | 37.22° C | 42% | 1015.7 hPa | 0 mm | - | - | - |
| 1788548246 | 36.67° C | 44% | 1015.8 hPa | 0 mm | - | - | - |
| 1788547647 | 36.11° C | 44% | 1016 hPa | 0 mm | - | - | - |
| 1788547045 | 36.67° C | 43% | 1016.1 hPa | 0 mm | - | - | - |
| 1788546445 | 36.11° C | 46% | 1016.1 hPa | 0 mm | - | - | - |
| 1788545905 | 35.56° C | 46% | 1016.3 hPa | 0 mm | - | - | - |
| 1788545245 | 36.11° C | 47% | 1016.4 hPa | 0 mm | - | - | - |
| 1788544646 | 35.56° C | 47% | 1016.5 hPa | 0 mm | - | - | - |
| 1788544105 | 35.56° C | 47% | 1016.7 hPa | 0 mm | - | - | - |
* Rain latest hour (hover to see other rain measurements)
** Current wind speed in m/s (hover to see current wind gust speed)